Time;durP1;ratioP1;P1;durP2;ratioP2;P2;SDS_P1;SDS_P2;PMS_P1;PMS_P2;Temp;Humidity;BMP_temperature;BMP_pressure;BME280_temperature;BME280_humidity;BME280_pressure;Samples;Min_cycle;Max_cycle;Signal;HPM_P1;HPM_P2
2023/04/24 00:01:07;;;;;;;15.38;7.07;;;;;;;;;;6251175;22;20426;-89
2023/04/24 00:03:33;;;;;;;11.40;6.57;;;;;;;;;;6251651;22;20052;-90
2023/04/24 00:06:00;;;;;;;14.27;7.55;;;;;;;;;;6275892;22;20334;-90
2023/04/24 00:08:27;;;;;;;18.45;7.53;;;;;;;;;;6249625;22;20034;-90
2023/04/24 00:10:53;;;;;;;12.45;6.85;;;;;;;;;;6249750;22;20039;-90
2023/04/24 00:13:29;;;;;;;13.70;7.35;;;;;;;;;;6250354;22;20014;-90
2023/04/24 00:15:56;;;;;;;9.80;5.80;;;;;;;;;;6273137;22;20018;-89
2023/04/24 00:18:22;;;;;;;12.73;6.10;;;;;;;;;;6277601;22;20019;-89
2023/04/24 00:20:48;;;;;;;11.27;6.20;;;;;;;;;;6249165;22;20007;-88
2023/04/24 00:23:14;;;;;;;16.77;6.32;;;;;;;;;;6276350;22;20009;-90
2023/04/24 00:25:40;;;;;;;11.30;6.18;;;;;;;;;;6249793;22;20011;-88
2023/04/24 00:28:06;;;;;;;10.45;5.65;;;;;;;;;;6276910;22;20709;-88
2023/04/24 00:30:36;;;;;;;16.20;6.00;;;;;;;;;;6247165;22;20624;-88
2023/04/24 00:33:05;;;;;;;4.35;2.38;;;;;;;;;;6275003;22;20028;-87
2023/04/24 00:35:31;;;;;;;6.88;3.85;;;;;;;;;;6249224;22;20030;-88
2023/04/24 00:37:57;;;;;;;4.07;3.17;;;;;;;;;;6274680;22;20033;-88
2023/04/24 00:40:34;;;;;;;4.10;1.77;;;;;;;;;;6250836;22;20011;-88
2023/04/24 00:43:00;;;;;;;5.68;2.88;;;;;;;;;;6273088;22;20018;-88
2023/04/24 00:45:39;;;;;;;3.35;1.90;;;;;;;;;;6272544;22;20012;-89
2023/04/24 00:48:06;;;;;;;2.72;2.03;;;;;;;;;;6249666;22;20738;-88
2023/04/24 00:50:33;;;;;;;2.80;2.10;;;;;;;;;;6249735;22;20012;-88
2023/04/24 00:53:00;;;;;;;2.15;1.67;;;;;;;;;;6276343;22;20446;-88
2023/04/24 00:55:26;;;;;;;3.97;1.95;;;;;;;;;;6218449;23;20375;-90
2023/04/24 00:57:52;;;;;;;2.28;1.67;;;;;;;;;;6219612;23;20086;-88
2023/04/24 01:00:19;;;;;;;3.17;1.60;;;;;;;;;;6193658;23;20042;-88
2023/04/24 01:02:46;;;;;;;3.63;1.60;;;;;;;;;;6219892;23;20427;-89
2023/04/24 01:05:17;;;;;;;2.15;1.60;;;;;;;;;;6193541;23;20035;-88
2023/04/24 01:07:48;;;;;;;2.17;1.52;;;;;;;;;;6195885;23;20004;-88
2023/04/24 01:10:17;;;;;;;1.98;1.13;;;;;;;;;;6245003;23;20071;-89
2023/04/24 01:12:43;;;;;;;2.80;1.50;;;;;;;;;;6219155;23;20008;-90
2023/04/24 01:15:10;;;;;;;1.48;1.38;;;;;;;;;;6191469;23;20066;-89
2023/04/24 01:17:54;;;;;;;1.35;1.10;;;;;;;;;;6192031;23;20042;-88
2023/04/24 01:20:20;;;;;;;1.90;1.45;;;;;;;;;;6193913;23;20426;-89
2023/04/24 01:22:47;;;;;;;3.28;2.03;;;;;;;;;;6194722;23;20008;-90
2023/04/24 01:25:13;;;;;;;3.92;2.90;;;;;;;;;;6218732;23;20011;-89
2023/04/24 01:28:00;;;;;;;5.32;3.70;;;;;;;;;;6215120;23;20006;-90
2023/04/24 01:30:27;;;;;;;3.90;3.10;;;;;;;;;;6216711;23;20450;-89
2023/04/24 01:32:59;;;;;;;5.25;3.30;;;;;;;;;;6193032;23;20652;-90
2023/04/24 01:35:25;;;;;;;3.78;3.03;;;;;;;;;;6216884;23;20091;-89
2023/04/24 01:37:52;;;;;;;6.47;3.72;;;;;;;;;;6192453;23;20016;-87
2023/04/24 01:40:18;;;;;;;5.60;3.25;;;;;;;;;;6217752;23;20389;-89
2023/04/24 01:42:44;;;;;;;2.40;2.05;;;;;;;;;;6192640;23;20034;-89
2023/04/24 01:45:14;;;;;;;6.03;1.73;;;;;;;;;;6217804;23;20008;-90
2023/04/24 01:47:40;;;;;;;1.73;1.58;;;;;;;;;;6216462;23;20412;-89
2023/04/24 01:50:07;;;;;;;3.03;2.20;;;;;;;;;;6220039;23;20481;-89
2023/04/24 01:52:35;;;;;;;2.80;1.90;;;;;;;;;;6216596;23;20012;-87
2023/04/24 01:55:01;;;;;;;2.90;2.10;;;;;;;;;;6263660;22;20020;-88
2023/04/24 01:57:27;;;;;;;2.15;1.80;;;;;;;;;;6249911;22;20077;-87
2023/04/24 01:59:53;;;;;;;3.22;1.88;;;;;;;;;;6249648;22;20026;-89
2023/04/24 02:02:21;;;;;;;3.63;1.88;;;;;;;;;;6250419;22;20019;-89
2023/04/24 02:04:47;;;;;;;2.72;2.15;;;;;;;;;;6250189;22;20318;-89
2023/04/24 02:07:13;;;;;;;3.10;2.10;;;;;;;;;;6249758;22;20051;-90
2023/04/24 02:09:43;;;;;;;3.83;2.60;;;;;;;;;;6275294;22;20022;-88
2023/04/24 02:12:10;;;;;;;3.10;2.30;;;;;;;;;;6276883;22;20061;-90
2023/04/24 02:14:39;;;;;;;3.60;2.00;;;;;;;;;;6275051;22;20035;-88
2023/04/24 02:17:07;;;;;;;3.33;2.55;;;;;;;;;;6275724;22;20008;-89
2023/04/24 02:19:33;;;;;;;4.07;2.78;;;;;;;;;;6275913;22;20004;-89
2023/04/24 02:21:59;;;;;;;4.60;3.20;;;;;;;;;;6252061;22;20075;-88
2023/04/24 02:24:25;;;;;;;4.85;3.05;;;;;;;;;;6275611;22;20010;-89
2023/04/24 02:26:51;;;;;;;5.13;3.33;;;;;;;;;;6276203;22;20015;-89
2023/04/24 02:29:21;;;;;;;5.38;3.53;;;;;;;;;;6250020;22;20015;-90
2023/04/24 02:31:47;;;;;;;5.07;3.53;;;;;;;;;;6274821;22;20016;-90
2023/04/24 02:34:13;;;;;;;4.70;3.45;;;;;;;;;;6274521;22;20029;-91
2023/04/24 02:36:39;;;;;;;5.30;3.67;;;;;;;;;;6246245;22;20492;-91
2023/04/24 02:39:06;;;;;;;5.80;3.80;;;;;;;;;;6275100;22;20010;-88
2023/04/24 02:41:32;;;;;;;4.78;3.58;;;;;;;;;;6272437;22;20446;-88
2023/04/24 02:43:59;;;;;;;6.65;4.18;;;;;;;;;;6248242;22;20146;-89
2023/04/24 02:46:26;;;;;;;12.45;3.97;;;;;;;;;;6273331;22;20345;-89
2023/04/24 02:48:52;;;;;;;6.10;4.03;;;;;;;;;;6274453;22;20004;-90
2023/04/24 02:51:18;;;;;;;5.10;3.85;;;;;;;;;;6273951;22;20098;-89
2023/04/24 02:53:44;;;;;;;9.50;4.30;;;;;;;;;;6246892;22;20019;-90
2023/04/24 02:56:16;;;;;;;6.97;3.42;;;;;;;;;;6248668;22;20038;-89
2023/04/24 02:58:43;;;;;;;8.63;4.38;;;;;;;;;;6274268;22;20020;-89
2023/04/24 03:01:09;;;;;;;7.40;4.88;;;;;;;;;;6271685;22;20438;-89
2023/04/24 03:03:38;;;;;;;8.23;4.43;;;;;;;;;;6275165;22;20315;-89
2023/04/24 03:06:07;;;;;;;9.20;4.97;;;;;;;;;;6248573;22;20035;-89
2023/04/24 03:08:34;;;;;;;6.20;4.25;;;;;;;;;;6274983;22;20007;-89
2023/04/24 03:11:00;;;;;;;7.05;4.72;;;;;;;;;;6249559;22;20035;-91
2023/04/24 03:13:26;;;;;;;6.72;4.15;;;;;;;;;;6276385;22;20012;-90
2023/04/24 03:15:53;;;;;;;5.20;3.65;;;;;;;;;;6272443;22;20098;-88
2023/04/24 03:18:20;;;;;;;7.10;4.25;;;;;;;;;;6251566;22;20016;-88
2023/04/24 03:20:47;;;;;;;6.93;4.15;;;;;;;;;;6287421;22;20028;-89
2023/04/24 03:23:13;;;;;;;7.22;4.30;;;;;;;;;;6286872;22;20824;-90
2023/04/24 03:25:40;;;;;;;9.77;5.25;;;;;;;;;;6287482;22;20008;-89
2023/04/24 03:28:07;;;;;;;8.52;5.10;;;;;;;;;;6261951;22;20069;-89
2023/04/24 03:30:39;;;;;;;9.20;5.80;;;;;;;;;;6254581;22;20004;-90
2023/04/24 03:33:05;;;;;;;9.57;5.35;;;;;;;;;;6251770;22;20026;-89
2023/04/24 03:35:32;;;;;;;12.07;5.47;;;;;;;;;;6249799;22;20034;-89
2023/04/24 03:37:58;;;;;;;12.85;5.88;;;;;;;;;;6271930;22;20008;-90
2023/04/24 03:40:24;;;;;;;11.60;6.72;;;;;;;;;;6274068;22;20028;-89
2023/04/24 03:42:50;;;;;;;14.98;6.82;;;;;;;;;;6272753;22;20007;-90
2023/04/24 03:45:16;;;;;;;12.65;8.05;;;;;;;;;;6247593;22;20008;-88
2023/04/24 03:47:44;;;;;;;8.57;5.03;;;;;;;;;;6249772;22;20038;-89
2023/04/24 03:50:11;;;;;;;12.90;7.68;;;;;;;;;;6276483;22;20012;-90
2023/04/24 03:52:37;;;;;;;8.07;5.10;;;;;;;;;;6273407;22;20438;-90
2023/04/24 03:55:03;;;;;;;13.95;9.00;;;;;;;;;;6277288;22;20012;-90
2023/04/24 03:57:29;;;;;;;20.25;8.20;;;;;;;;;;6249109;22;20055;-89
2023/04/24 03:59:56;;;;;;;15.48;9.48;;;;;;;;;;6247666;22;20026;-89
2023/04/24 04:02:22;;;;;;;10.52;6.47;;;;;;;;;;6247218;22;20529;-88
2023/04/24 04:04:48;;;;;;;13.43;7.55;;;;;;;;;;6251549;22;20043;-87
2023/04/24 04:07:14;;;;;;;13.45;8.68;;;;;;;;;;6247620;22;20008;-89
2023/04/24 04:09:40;;;;;;;15.95;9.88;;;;;;;;;;6250339;22;20015;-89
2023/04/24 04:12:08;;;;;;;16.27;8.70;;;;;;;;;;6273422;22;20007;-90
2023/04/24 04:14:34;;;;;;;16.40;8.57;;;;;;;;;;6250872;22;20095;-90
2023/04/24 04:17:00;;;;;;;12.57;7.20;;;;;;;;;;6274766;22;20073;-89
2023/04/24 04:19:26;;;;;;;17.90;9.02;;;;;;;;;;6277514;22;20004;-90
2023/04/24 04:21:55;;;;;;;13.18;8.27;;;;;;;;;;6250176;22;20472;-88
2023/04/24 04:24:22;;;;;;;10.82;7.15;;;;;;;;;;6254355;22;20008;-91
2023/04/24 04:26:50;;;;;;;14.35;8.30;;;;;;;;;;6275147;22;20004;-91
2023/04/24 04:29:18;;;;;;;16.30;8.55;;;;;;;;;;6249917;22;20022;-91
2023/04/24 04:31:45;;;;;;;12.27;8.10;;;;;;;;;;6281123;22;20050;-91
2023/04/24 04:34:12;;;;;;;16.98;8.77;;;;;;;;;;6252289;22;20107;-89
2023/04/24 04:36:39;;;;;;;10.05;7.38;;;;;;;;;;6249361;22;20012;-88
2023/04/24 04:39:08;;;;;;;21.48;6.97;;;;;;;;;;6249734;22;20027;-91
2023/04/24 04:41:37;;;;;;;12.95;6.85;;;;;;;;;;6250904;22;20098;-91
2023/04/24 04:44:04;;;;;;;14.55;8.07;;;;;;;;;;6248158;22;20870;-91
2023/04/24 04:46:32;;;;;;;21.80;12.25;;;;;;;;;;6248582;22;20004;-89
2023/04/24 04:48:58;;;;;;;10.48;6.15;;;;;;;;;;6273253;22;20692;-89
2023/04/24 04:51:24;;;;;;;9.75;6.60;;;;;;;;;;6250442;22;20053;-89
2023/04/24 04:53:57;;;;;;;9.93;5.40;;;;;;;;;;6250214;22;20441;-89
2023/04/24 04:56:30;;;;;;;6.90;4.43;;;;;;;;;;6244986;22;20704;-87
2023/04/24 04:58:56;;;;;;;8.38;5.43;;;;;;;;;;6269426;22;20100;-88
2023/04/24 05:01:26;;;;;;;12.98;6.13;;;;;;;;;;6269196;22;20003;-86
2023/04/24 05:03:52;;;;;;;12.90;6.47;;;;;;;;;;6269199;22;20004;-87
2023/04/24 05:06:18;;;;;;;16.10;6.18;;;;;;;;;;6244779;22;20004;-88
2023/04/24 05:08:44;;;;;;;8.07;5.40;;;;;;;;;;6243483;22;20016;-88
2023/04/24 05:11:11;;;;;;;12.18;5.85;;;;;;;;;;6269748;22;20072;-89
2023/04/24 05:13:37;;;;;;;12.73;5.80;;;;;;;;;;6244811;22;20250;-88
2023/04/24 05:16:03;;;;;;;13.93;5.70;;;;;;;;;;6269674;22;20342;-90
2023/04/24 05:18:29;;;;;;;7.15;4.57;;;;;;;;;;6269317;22;20037;-91
2023/04/24 05:20:55;;;;;;;8.55;4.38;;;;;;;;;;6245427;22;20038;-88
2023/04/24 05:23:21;;;;;;;6.57;4.68;;;;;;;;;;6270103;22;20447;-87
2023/04/24 05:25:48;;;;;;;6.55;3.35;;;;;;;;;;6268867;22;20341;-89
2023/04/24 05:28:15;;;;;;;6.53;3.65;;;;;;;;;;6269335;22;20049;-88
2023/04/24 05:30:41;;;;;;;10.73;4.00;;;;;;;;;;6269969;22;20338;-88
2023/04/24 05:33:08;;;;;;;7.72;3.75;;;;;;;;;;6273563;22;20004;-89
2023/04/24 05:35:36;;;;;;;7.25;3.90;;;;;;;;;;6273092;22;20069;-90
2023/04/24 05:38:02;;;;;;;13.23;4.57;;;;;;;;;;6248499;22;20392;-90
2023/04/24 05:40:29;;;;;;;10.32;5.10;;;;;;;;;;6249246;22;20070;-91
2023/04/24 05:42:55;;;;;;;9.45;4.05;;;;;;;;;;6248555;22;20031;-91
2023/04/24 05:45:21;;;;;;;9.88;4.57;;;;;;;;;;6273745;22;20062;-89
2023/04/24 05:47:47;;;;;;;13.43;4.28;;;;;;;;;;6273968;22;20345;-88
2023/04/24 05:50:15;;;;;;;14.05;4.18;;;;;;;;;;6273917;22;20018;-88
2023/04/24 05:52:41;;;;;;;10.57;4.03;;;;;;;;;;6274481;22;20012;-88
2023/04/24 05:55:13;;;;;;;8.00;4.30;;;;;;;;;;6247719;22;20099;-88
2023/04/24 05:57:47;;;;;;;9.73;4.68;;;;;;;;;;6250085;22;20027;-89
2023/04/24 06:00:13;;;;;;;10.90;4.72;;;;;;;;;;6272647;22;20011;-89
2023/04/24 06:02:40;;;;;;;11.18;4.55;;;;;;;;;;6274258;22;20016;-87
2023/04/24 06:05:26;;;;;;;15.15;4.85;;;;;;;;;;6273973;22;20036;-88
2023/04/24 06:07:52;;;;;;;10.70;4.00;;;;;;;;;;6300622;22;20487;-89
2023/04/24 06:10:18;;;;;;;12.70;4.35;;;;;;;;;;6248870;22;20007;-89
2023/04/24 06:12:45;;;;;;;13.43;4.65;;;;;;;;;;6249822;22;20022;-88
2023/04/24 06:15:16;;;;;;;12.95;4.47;;;;;;;;;;6274519;22;20198;-90
2023/04/24 06:17:42;;;;;;;13.02;4.93;;;;;;;;;;6274477;22;20008;-91
2023/04/24 06:20:11;;;;;;;9.38;4.47;;;;;;;;;;6248888;22;20718;-88
2023/04/24 06:22:39;;;;;;;11.65;4.57;;;;;;;;;;6249730;22;20010;-91
2023/04/24 06:25:06;;;;;;;10.20;4.70;;;;;;;;;;6248410;22;20012;-91
2023/04/24 06:27:32;;;;;;;13.52;6.45;;;;;;;;;;6247578;22;20047;-92
2023/04/24 06:29:58;;;;;;;13.82;5.13;;;;;;;;;;6247840;22;20007;-90
2023/04/24 06:32:25;;;;;;;9.85;6.35;;;;;;;;;;6249562;22;20020;-90
2023/04/24 06:34:54;;;;;;;8.77;5.25;;;;;;;;;;6273503;22;20008;-91
2023/04/24 06:37:20;;;;;;;11.35;5.97;;;;;;;;;;6272996;22;20070;-90
2023/04/24 06:39:47;;;;;;;13.45;5.53;;;;;;;;;;6273933;22;20089;-92
2023/04/24 06:42:13;;;;;;;17.13;5.72;;;;;;;;;;6248027;22;20011;-93
2023/04/24 06:44:42;;;;;;;12.48;6.18;;;;;;;;;;6247527;22;20016;-92
2023/04/24 06:47:09;;;;;;;10.52;4.90;;;;;;;;;;6275559;22;20004;-90
2023/04/24 06:49:36;;;;;;;19.73;5.20;;;;;;;;;;6273450;22;20022;-95
2023/04/24 06:52:02;;;;;;;11.55;4.97;;;;;;;;;;6276742;22;20008;-91
2023/04/24 06:54:28;;;;;;;12.27;4.50;;;;;;;;;;6251865;22;20018;-92
2023/04/24 06:56:55;;;;;;;13.43;5.07;;;;;;;;;;6276657;22;20077;-92
2023/04/24 06:59:21;;;;;;;15.68;5.13;;;;;;;;;;6252012;22;20019;-91
2023/04/24 07:01:47;;;;;;;14.27;4.95;;;;;;;;;;6245472;22;20008;-91
2023/04/24 07:04:13;;;;;;;8.90;3.72;;;;;;;;;;6249674;22;20008;-94
2023/04/24 07:06:39;;;;;;;107.90;46.17;;;;;;;;;;6250448;22;20397;-89
2023/04/24 07:09:05;;;;;;;10.73;4.40;;;;;;;;;;6276145;22;20031;-90
2023/04/24 07:11:32;;;;;;;36.00;4.35;;;;;;;;;;6252828;22;20014;-91
2023/04/24 07:13:58;;;;;;;7.13;2.55;;;;;;;;;;6295059;22;20003;-91
2023/04/24 07:16:36;;;;;;;57.40;5.95;;;;;;;;;;6293584;22;20004;-96
2023/04/24 07:19:02;;;;;;;88.85;8.70;;;;;;;;;;6295303;22;20004;-91
2023/04/24 07:21:28;;;;;;;21.63;4.00;;;;;;;;;;6267456;22;20180;-92
2023/04/24 07:23:54;;;;;;;33.42;3.67;;;;;;;;;;6266910;22;20071;-93
2023/04/24 07:26:21;;;;;;;5.85;2.67;;;;;;;;;;6288747;22;20428;-92
2023/04/24 07:28:47;;;;;;;8.35;2.38;;;;;;;;;;6286927;22;20014;-93
2023/04/24 07:31:13;;;;;;;26.02;3.15;;;;;;;;;;6275407;22;20157;-93
2023/04/24 07:33:46;;;;;;;10.05;2.80;;;;;;;;;;6250427;22;20016;-95
2023/04/24 07:36:19;;;;;;;8.23;2.20;;;;;;;;;;6246044;22;20012;-95
2023/04/24 07:39:00;;;;;;;3.17;2.20;;;;;;;;;;6276394;22;20074;-94
2023/04/24 07:41:32;;;;;;;13.18;3.10;;;;;;;;;;6274216;22;20004;-94
2023/04/24 07:43:59;;;;;;;9.45;2.80;;;;;;;;;;6246233;22;20158;-92
2023/04/24 07:46:26;;;;;;;12.48;3.42;;;;;;;;;;6271201;22;20449;-92
2023/04/24 07:48:52;;;;;;;8.55;2.40;;;;;;;;;;6269231;22;20012;-88
2023/04/24 07:51:21;;;;;;;9.45;3.05;;;;;;;;;;6268422;22;20610;-90
2023/04/24 07:53:47;;;;;;;10.07;2.55;;;;;;;;;;6270618;22;20039;-89
2023/04/24 07:56:14;;;;;;;15.10;3.45;;;;;;;;;;6243122;22;20015;-88
2023/04/24 07:58:40;;;;;;;8.77;2.45;;;;;;;;;;6244586;22;20024;-90
2023/04/24 08:01:08;;;;;;;12.70;2.88;;;;;;;;;;6268328;22;20395;-92
2023/04/24 08:03:34;;;;;;;11.00;4.10;;;;;;;;;;6270783;22;19999;-90
2023/04/24 08:06:03;;;;;;;10.82;4.57;;;;;;;;;;6272236;22;20015;-91
2023/04/24 08:08:30;;;;;;;13.48;5.35;;;;;;;;;;6272675;22;20019;-92
2023/04/24 08:10:56;;;;;;;16.50;6.15;;;;;;;;;;6245460;22;20158;-92
2023/04/24 08:13:22;;;;;;;18.38;6.63;;;;;;;;;;6268109;22;20007;-92
2023/04/24 08:15:49;;;;;;;14.85;7.20;;;;;;;;;;6242321;22;20019;-93
2023/04/24 08:18:18;;;;;;;16.20;7.10;;;;;;;;;;6273914;22;20499;-91
2023/04/24 08:20:45;;;;;;;16.63;6.95;;;;;;;;;;6249036;22;20084;-91
2023/04/24 08:23:11;;;;;;;31.88;9.80;;;;;;;;;;6249302;22;20057;-91
2023/04/24 08:25:37;;;;;;;37.80;11.20;;;;;;;;;;6248005;22;20007;-91
2023/04/24 08:28:07;;;;;;;42.38;12.68;;;;;;;;;;6252564;22;20004;-91
2023/04/24 08:30:33;;;;;;;38.67;11.20;;;;;;;;;;6249895;22;20047;-91
2023/04/24 08:32:59;;;;;;;29.70;11.43;;;;;;;;;;6250354;22;20019;-90
2023/04/24 08:35:41;;;;;;;37.25;11.98;;;;;;;;;;6247477;22;20011;-92
2023/04/24 08:38:07;;;;;;;29.17;11.90;;;;;;;;;;6272438;22;20007;-92
2023/04/24 08:40:35;;;;;;;32.65;11.05;;;;;;;;;;6272405;22;20014;-90
2023/04/24 08:43:01;;;;;;;31.70;11.27;;;;;;;;;;6272571;22;20087;-91
2023/04/24 08:45:28;;;;;;;31.38;10.57;;;;;;;;;;6245057;22;20031;-88
2023/04/24 08:47:57;;;;;;;30.15;10.80;;;;;;;;;;6249495;22;20018;-90
2023/04/24 08:50:23;;;;;;;25.60;9.60;;;;;;;;;;6275806;22;20012;-92
2023/04/24 08:52:53;;;;;;;26.00;9.52;;;;;;;;;;6249940;22;20113;-91
2023/04/24 08:55:27;;;;;;;29.67;10.45;;;;;;;;;;6277824;22;20022;-91
2023/04/24 08:58:04;;;;;;;23.98;10.93;;;;;;;;;;6250625;22;20027;-91
2023/04/24 09:00:33;;;;;;;41.88;11.13;;;;;;;;;;6249238;22;20020;-91
2023/04/24 09:03:01;;;;;;;22.80;9.60;;;;;;;;;;6249122;22;20022;-92
2023/04/24 09:05:30;;;;;;;20.17;9.20;;;;;;;;;;6248766;22;20003;-91
2023/04/24 09:07:57;;;;;;;27.10;10.15;;;;;;;;;;6226142;22;20397;-91
2023/04/24 09:10:24;;;;;;;31.30;10.10;;;;;;;;;;6249942;22;20007;-92
2023/04/24 09:12:51;;;;;;;27.90;10.65;;;;;;;;;;6252681;22;20031;-91
2023/04/24 09:15:18;;;;;;;26.50;6.70;;;;;;;;;;6251245;22;20030;-92
2023/04/24 09:17:44;;;;;;;21.48;10.70;;;;;;;;;;6252624;22;20007;-92
2023/04/24 09:20:11;;;;;;;16.30;6.60;;;;;;;;;;6225037;22;20015;-92
2023/04/24 09:22:39;;;;;;;30.02;10.85;;;;;;;;;;6227197;22;20418;-92
2023/04/24 09:25:12;;;;;;;43.42;11.15;;;;;;;;;;6251503;22;20018;-92
2023/04/24 09:27:43;;;;;;;24.88;10.20;;;;;;;;;;6251884;22;20492;-92
2023/04/24 09:30:10;;;;;;;25.88;10.55;;;;;;;;;;6250648;22;20022;-92
2023/04/24 09:32:39;;;;;;;22.65;9.73;;;;;;;;;;6227000;22;20016;-92
2023/04/24 09:35:09;;;;;;;29.83;9.57;;;;;;;;;;6226778;22;20012;-91
2023/04/24 09:37:46;;;;;;;18.20;8.48;;;;;;;;;;6251136;22;20592;-92
2023/04/24 09:40:14;;;;;;;18.90;8.30;;;;;;;;;;6250595;22;20073;-92
2023/04/24 09:42:52;;;;;;;14.95;7.35;;;;;;;;;;6251046;22;20318;-92
2023/04/24 09:45:18;;;;;;;18.65;8.55;;;;;;;;;;6250608;22;20007;-93
2023/04/24 09:47:44;;;;;;;23.90;7.68;;;;;;;;;;6227092;22;20012;-92
2023/04/24 09:50:11;;;;;;;19.17;7.72;;;;;;;;;;6226071;22;20018;-93
2023/04/24 09:52:42;;;;;;;18.45;7.38;;;;;;;;;;6227227;22;20007;-91
2023/04/24 09:55:19;;;;;;;18.00;7.03;;;;;;;;;;6250134;22;20023;-93
2023/04/24 09:57:53;;;;;;;21.73;6.35;;;;;;;;;;6275985;22;20016;-92
2023/04/24 10:00:26;;;;;;;22.50;7.35;;;;;;;;;;6273588;22;20114;-92
2023/04/24 10:02:59;;;;;;;20.38;6.57;;;;;;;;;;6275449;22;20077;-92
2023/04/24 10:05:33;;;;;;;19.75;7.32;;;;;;;;;;6275762;22;20008;-92
2023/04/24 10:08:09;;;;;;;12.90;4.03;;;;;;;;;;6276507;22;20004;-91
2023/04/24 10:10:39;;;;;;;27.42;6.18;;;;;;;;;;6276270;22;20007;-91
2023/04/24 10:13:26;;;;;;;14.60;5.82;;;;;;;;;;6277315;22;20011;-92
2023/04/24 10:15:52;;;;;;;13.77;6.13;;;;;;;;;;6294258;22;20008;-92
2023/04/24 10:18:20;;;;;;;16.50;5.25;;;;;;;;;;6276736;22;20050;-92
2023/04/24 10:20:47;;;;;;;14.38;4.85;;;;;;;;;;6276226;22;20063;-92
2023/04/24 10:26:04;;;;;;;6.50;3.65;;;;;;;;;;6275806;22;20015;-92
2023/04/24 10:28:52;;;;;;;18.38;4.05;;;;;;;;;;6274855;22;20086;-92
2023/04/24 10:31:19;;;;;;;10.90;4.20;;;;;;;;;;6272390;22;20383;-92
2023/04/24 10:33:46;;;;;;;7.55;3.13;;;;;;;;;;6277128;22;20004;-91
2023/04/24 10:36:14;;;;;;;7.60;2.80;;;;;;;;;;6273652;22;20011;-91
2023/04/24 10:38:41;;;;;;;8.07;2.92;;;;;;;;;;6276485;22;20011;-91
2023/04/24 10:41:16;;;;;;;6.82;3.53;;;;;;;;;;6275230;22;20531;-92
2023/04/24 10:43:45;;;;;;;5.43;2.22;;;;;;;;;;6276096;22;20035;-91
2023/04/24 10:46:17;;;;;;;8.82;3.05;;;;;;;;;;6274484;22;20503;-91
2023/04/24 10:48:45;;;;;;;18.73;2.90;;;;;;;;;;6278207;22;20015;-91
2023/04/24 10:51:16;;;;;;;6.10;2.30;;;;;;;;;;6250496;22;20019;-91
2023/04/24 10:53:42;;;;;;;7.65;2.58;;;;;;;;;;6253354;22;20019;-90
2023/04/24 10:56:10;;;;;;;11.20;3.25;;;;;;;;;;6249644;22;20015;-92
2023/04/24 10:58:48;;;;;;;9.57;3.08;;;;;;;;;;6277584;22;20003;-91
2023/04/24 11:01:30;;;;;;;5.25;1.85;;;;;;;;;;6278826;22;20025;-94
2023/04/24 11:04:01;;;;;;;7.20;2.38;;;;;;;;;;6288722;22;20035;-87
2023/04/24 11:06:35;;;;;;;4.93;1.85;;;;;;;;;;6283877;22;19999;-88
2023/04/24 11:09:08;;;;;;;8.27;2.28;;;;;;;;;;6292024;22;20030;-88
2023/04/24 11:11:36;;;;;;;10.18;2.38;;;;;;;;;;6287340;22;20004;-87
2023/04/24 11:14:06;;;;;;;5.50;2.22;;;;;;;;;;6283668;22;20073;-88
2023/04/24 11:16:39;;;;;;;17.48;3.45;;;;;;;;;;6272613;22;20015;-87
2023/04/24 11:19:26;;;;;;;9.63;2.80;;;;;;;;;;6275946;22;20038;-87
2023/04/24 11:21:56;;;;;;;2.67;1.58;;;;;;;;;;6299237;22;20004;-88
2023/04/24 11:24:27;;;;;;;9.85;2.25;;;;;;;;;;6270568;22;19999;-87
2023/04/24 11:26:54;;;;;;;5.43;1.67;;;;;;;;;;6270269;22;20010;-88
2023/04/24 11:29:21;;;;;;;8.52;2.25;;;;;;;;;;6273503;22;20007;-88
2023/04/24 11:31:49;;;;;;;18.23;3.35;;;;;;;;;;6271724;22;20064;-88
2023/04/24 11:34:16;;;;;;;12.52;2.55;;;;;;;;;;6274682;22;20015;-88
2023/04/24 11:36:47;;;;;;;10.82;1.88;;;;;;;;;;6272163;22;20032;-87
2023/04/24 11:39:14;;;;;;;3.67;1.27;;;;;;;;;;6273535;22;20065;-87
2023/04/24 11:41:41;;;;;;;10.43;2.53;;;;;;;;;;6275359;22;20022;-87
2023/04/24 11:44:08;;;;;;;6.32;2.13;;;;;;;;;;6274734;22;20063;-87
2023/04/24 11:46:35;;;;;;;9.43;1.80;;;;;;;;;;6275271;22;20015;-88
2023/04/24 11:49:01;;;;;;;16.10;2.10;;;;;;;;;;6249564;22;20024;-87
2023/04/24 11:51:40;;;;;;;11.05;1.88;;;;;;;;;;6275440;22;20008;-87
2023/04/24 11:54:09;;;;;;;3.88;1.63;;;;;;;;;;6246000;22;20012;-86
2023/04/24 11:56:39;;;;;;;8.10;1.95;;;;;;;;;;6273512;22;20078;-87
2023/04/24 11:59:05;;;;;;;3.00;1.55;;;;;;;;;;6275600;22;20011;-86
2023/04/24 12:01:42;;;;;;;10.70;1.65;;;;;;;;;;6247303;22;20007;-87
2023/04/24 12:04:09;;;;;;;6.75;1.90;;;;;;;;;;6272865;22;20078;-85
2023/04/24 12:06:40;;;;;;;11.63;2.55;;;;;;;;;;6274512;22;20008;-87
2023/04/24 12:09:06;;;;;;;7.68;2.22;;;;;;;;;;6249649;22;20094;-88
2023/04/24 12:11:33;;;;;;;7.38;1.92;;;;;;;;;;6274101;22;20327;-87
2023/04/24 12:14:10;;;;;;;7.55;2.00;;;;;;;;;;6274817;22;20019;-87
2023/04/24 12:16:36;;;;;;;6.05;1.75;;;;;;;;;;6272406;22;20022;-87
2023/04/24 12:19:03;;;;;;;4.68;2.00;;;;;;;;;;6250061;22;20032;-87
2023/04/24 12:21:38;;;;;;;5.07;1.73;;;;;;;;;;6246573;22;20015;-87
2023/04/24 12:24:07;;;;;;;6.30;2.08;;;;;;;;;;6250366;22;20008;-88
2023/04/24 12:26:33;;;;;;;4.72;1.60;;;;;;;;;;6273532;22;20297;-87
2023/04/24 12:29:04;;;;;;;5.68;2.13;;;;;;;;;;6273155;22;20011;-87
2023/04/24 12:31:32;;;;;;;4.05;1.70;;;;;;;;;;6246835;22;20016;-87
2023/04/24 12:33:58;;;;;;;10.15;1.73;;;;;;;;;;6248213;22;20319;-87
2023/04/24 12:36:24;;;;;;;1.75;1.00;;;;;;;;;;6272913;22;20622;-88
2023/04/24 12:38:53;;;;;;;2.08;1.27;;;;;;;;;;6246540;22;20031;-89
2023/04/24 12:41:19;;;;;;;8.55;1.08;;;;;;;;;;6273121;22;20038;-87
2023/04/24 12:44:02;;;;;;;9.50;1.40;;;;;;;;;;6248267;22;20027;-87
2023/04/24 12:46:28;;;;;;;10.88;1.42;;;;;;;;;;6248324;22;20018;-87
2023/04/24 12:48:54;;;;;;;0.50;0.50;;;;;;;;;;6246800;22;20047;-87
2023/04/24 12:51:21;;;;;;;6.28;1.27;;;;;;;;;;6269616;22;20536;-88
2023/04/24 12:53:47;;;;;;;4.35;1.25;;;;;;;;;;6269197;22;20012;-88
2023/04/24 12:56:13;;;;;;;3.63;1.10;;;;;;;;;;6244143;22;20419;-87
2023/04/24 12:58:39;;;;;;;3.75;1.20;;;;;;;;;;6246450;22;20012;-87
2023/04/24 13:01:05;;;;;;;9.57;1.42;;;;;;;;;;6246883;22;20003;-88
2023/04/24 13:03:31;;;;;;;2.88;1.00;;;;;;;;;;6245728;22;20031;-88
2023/04/24 13:05:58;;;;;;;4.05;0.77;;;;;;;;;;6243201;22;20011;-87
2023/04/24 13:08:24;;;;;;;5.95;1.17;;;;;;;;;;6268318;22;20092;-87
2023/04/24 13:10:51;;;;;;;2.78;0.95;;;;;;;;;;6267704;22;20058;-87
2023/04/24 13:13:21;;;;;;;9.32;1.38;;;;;;;;;;6243056;22;20099;-87
2023/04/24 13:15:47;;;;;;;6.82;1.85;;;;;;;;;;6271288;22;20009;-88
2023/04/24 13:18:13;;;;;;;5.30;1.25;;;;;;;;;;6270913;22;20011;-86
2023/04/24 13:20:40;;;;;;;7.50;1.50;;;;;;;;;;6271450;22;20559;-88
2023/04/24 13:23:07;;;;;;;11.48;1.60;;;;;;;;;;6246937;22;20008;-87
2023/04/24 13:25:35;;;;;;;2.78;1.35;;;;;;;;;;6270090;22;20011;-87
2023/04/24 13:28:01;;;;;;;5.82;1.50;;;;;;;;;;6271983;22;20003;-87
2023/04/24 13:30:27;;;;;;;8.20;1.20;;;;;;;;;;6245156;22;20070;-87
2023/04/24 13:32:57;;;;;;;3.42;1.23;;;;;;;;;;6244533;22;20012;-87
2023/04/24 13:35:31;;;;;;;6.97;1.08;;;;;;;;;;6271586;22;20011;-87
2023/04/24 13:37:58;;;;;;;8.00;0.95;;;;;;;;;;6266308;22;20007;-88
2023/04/24 13:40:24;;;;;;;8.65;1.27;;;;;;;;;;6270287;22;20008;-87
2023/04/24 13:42:56;;;;;;;8.38;1.17;;;;;;;;;;6244996;22;20007;-88
2023/04/24 13:45:26;;;;;;;3.15;1.10;;;;;;;;;;6242653;22;20007;-87
2023/04/24 13:47:53;;;;;;;8.43;0.60;;;;;;;;;;6247238;22;20086;-87
2023/04/24 13:50:20;;;;;;;0.80;0.47;;;;;;;;;;6269960;22;20237;-87
2023/04/24 13:52:46;;;;;;;1.88;0.82;;;;;;;;;;6242677;22;20369;-87
2023/04/24 13:55:12;;;;;;;9.05;2.00;;;;;;;;;;6247421;22;20430;-88
2023/04/24 13:57:38;;;;;;;7.55;1.30;;;;;;;;;;6273322;22;20095;-88
2023/04/24 14:00:06;;;;;;;4.70;1.00;;;;;;;;;;6269833;22;20012;-87
2023/04/24 14:02:32;;;;;;;4.20;0.63;;;;;;;;;;6270429;22;20038;-87
2023/04/24 14:04:58;;;;;;;3.35;0.80;;;;;;;;;;6247167;22;20062;-88
2023/04/24 14:07:24;;;;;;;8.27;0.98;;;;;;;;;;6268758;22;19999;-88
2023/04/24 14:09:50;;;;;;;2.80;1.67;;;;;;;;;;6248253;22;20438;-88
2023/04/24 14:12:38;;;;;;;5.40;1.65;;;;;;;;;;6248229;22;20383;-88
2023/04/24 14:15:13;;;;;;;8.25;0.95;;;;;;;;;;6295667;22;20088;-89
2023/04/24 14:17:40;;;;;;;7.03;1.77;;;;;;;;;;6273870;22;20024;-89
2023/04/24 14:20:07;;;;;;;11.38;1.92;;;;;;;;;;6243509;22;20007;-88
2023/04/24 14:22:39;;;;;;;7.05;2.97;;;;;;;;;;6269910;22;20007;-87
2023/04/24 14:25:06;;;;;;;13.77;2.58;;;;;;;;;;6246661;22;20046;-86
2023/04/24 14:27:34;;;;;;;17.05;2.45;;;;;;;;;;6246907;22;20099;-87
2023/04/24 14:30:02;;;;;;;15.40;1.95;;;;;;;;;;6271607;22;20016;-87
2023/04/24 14:32:29;;;;;;;14.50;2.58;;;;;;;;;;6246347;22;20110;-87
2023/04/24 14:34:55;;;;;;;7.43;1.70;;;;;;;;;;6272246;22;20011;-87
2023/04/24 14:37:21;;;;;;;7.38;1.98;;;;;;;;;;6246272;22;20021;-87
2023/04/24 14:39:47;;;;;;;3.92;1.73;;;;;;;;;;6245112;22;20438;-87
2023/04/24 14:42:13;;;;;;;8.15;1.98;;;;;;;;;;6265733;22;20076;-87
2023/04/24 14:44:39;;;;;;;8.00;2.97;;;;;;;;;;6237803;22;20396;-87